Time;durP1;ratioP1;P1;durP2;ratioP2;P2;SDS_P1;SDS_P2;PMS_P1;PMS_P2;Temp;Humidity;BMP_temperature;BMP_pressure;BME280_temperature;BME280_humidity;BME280_pressure;Samples;Min_cycle;Max_cycle;Signal;HPM_P1;HPM_P2
2021/04/04 00:00:01;;;;;;;2.47;1.40;;;8.60;59.50;8.90;99722.00;;;;339365;28;82510;-91
2021/04/04 00:00:15;;;;;;;3.05;1.73;;;8.60;59.50;8.80;99721.00;;;;331211;29;94009;-91
2021/04/04 00:00:28;;;;;;;4.38;2.05;;;8.60;59.50;8.90;99718.00;;;;333718;29;82525;-87
2021/04/04 00:00:40;;;;;;;3.72;1.83;;;8.60;59.60;8.80;99718.00;;;;334281;29;92249;-88
2021/04/04 00:00:52;;;;;;;3.05;1.63;;;8.60;59.60;8.80;99714.00;;;;332549;29;83409;-87
2021/04/04 00:01:04;;;;;;;4.13;1.60;;;8.60;59.70;8.80;99720.00;;;;331319;29;94800;-88
2021/04/04 00:01:18;;;;;;;5.78;1.55;;;8.60;59.60;8.80;99725.00;;;;329690;29;82526;-88
2021/04/04 00:01:29;;;;;;;5.40;1.48;;;8.70;59.50;8.90;99727.00;;;;330906;29;95734;-86
2021/04/04 00:01:41;;;;;;;4.14;1.58;;;8.70;59.70;8.90;99726.00;;;;330926;29;83131;-88
2021/04/04 00:01:52;;;;;;;3.00;1.65;;;8.60;60.30;8.80;99725.00;;;;330301;29;95513;-86
2021/04/04 00:02:03;;;;;;;3.13;1.55;;;8.60;59.70;8.80;99726.00;;;;330994;29;83403;-87
2021/04/04 00:02:15;;;;;;;4.30;1.60;;;8.60;59.50;8.70;99729.00;;;;329760;29;92075;-88
2021/04/04 00:02:26;;;;;;;4.88;2.00;;;8.60;59.40;8.70;99718.00;;;;328568;29;83359;-87
2021/04/04 00:02:38;;;;;;;4.55;1.80;;;8.60;59.80;8.70;99723.00;;;;330187;29;94403;-86
2021/04/04 00:02:49;;;;;;;3.40;1.50;;;8.60;59.30;8.80;99725.00;;;;331141;29;82496;-86
2021/04/04 00:03:01;;;;;;;2.92;1.50;;;8.60;59.40;8.70;99728.00;;;;328960;29;94412;-86
2021/04/04 00:03:13;;;;;;;2.80;1.58;;;8.60;59.50;8.80;99722.00;;;;333639;29;83357;-87
2021/04/04 00:03:24;;;;;;;2.33;1.45;;;8.60;59.40;8.80;99732.00;;;;331472;29;95247;-88
2021/04/04 00:03:35;;;;;;;3.20;1.63;;;8.60;59.40;8.80;99727.00;;;;329814;29;82412;-87
2021/04/04 00:03:48;;;;;;;3.22;1.70;;;8.60;59.50;8.80;99731.00;;;;330315;29;94984;-87
2021/04/04 00:04:00;;;;;;;4.07;1.80;;;8.60;59.50;8.80;99728.00;;;;333912;28;82489;-87
2021/04/04 00:04:11;;;;;;;3.70;1.75;;;8.60;59.70;8.80;99726.00;;;;332313;29;94729;-88
2021/04/04 00:04:23;;;;;;;5.15;1.88;;;8.60;59.60;8.90;99731.00;;;;333615;29;83470;-86
2021/04/04 00:04:34;;;;;;;5.57;2.00;;;8.60;59.50;8.80;99732.00;;;;330314;29;94415;-87
2021/04/04 00:04:46;;;;;;;4.88;1.92;;;8.60;59.50;8.80;99721.00;;;;330769;29;82561;-87
2021/04/04 00:04:57;;;;;;;3.38;1.88;;;8.60;59.50;8.90;99733.00;;;;329210;29;94759;-86
2021/04/04 00:05:09;;;;;;;3.53;1.80;;;8.60;60.20;8.70;99743.00;;;;328535;29;83405;-87
2021/04/04 00:05:22;;;;;;;3.30;1.80;;;8.60;59.60;8.80;99740.00;;;;330234;29;95081;-87
2021/04/04 00:05:34;;;;;;;2.90;1.77;;;8.60;59.50;8.70;99737.00;;;;329769;29;83360;-87
2021/04/04 00:05:45;;;;;;;3.70;1.65;;;8.60;59.50;8.80;99731.00;;;;330409;29;93063;-87
2021/04/04 00:05:57;;;;;;;3.90;1.30;;;8.60;59.50;8.80;99729.00;;;;328515;29;83295;-87
2021/04/04 00:06:08;;;;;;;4.53;1.52;;;8.60;59.40;8.80;99725.00;;;;330393;29;94496;-87
2021/04/04 00:06:19;;;;;;;3.53;1.60;;;8.60;59.40;8.80;99728.00;;;;330935;29;83429;-87
2021/04/04 00:06:31;;;;;;;4.07;1.75;;;8.60;59.40;8.80;99725.00;;;;329101;29;94450;-87
2021/04/04 00:06:42;;;;;;;3.17;1.50;;;8.60;59.30;8.70;99734.00;;;;329106;29;83638;-86
2021/04/04 00:06:54;;;;;;;3.50;1.45;;;8.60;59.20;8.80;99731.00;;;;327719;29;94777;-87
2021/04/04 00:07:05;;;;;;;2.97;1.42;;;8.60;59.30;8.70;99732.00;;;;333477;29;83617;-87
2021/04/04 00:07:17;;;;;;;3.10;1.27;;;8.60;59.20;8.80;99730.00;;;;332642;28;96700;-87
2021/04/04 00:07:28;;;;;;;4.07;1.65;;;8.60;59.20;8.80;99727.00;;;;332896;28;83562;-87
2021/04/04 00:07:40;;;;;;;4.15;1.77;;;8.60;59.30;8.90;99727.00;;;;329133;29;93105;-87
2021/04/04 00:07:52;;;;;;;4.65;2.08;;;8.60;59.20;8.90;99737.00;;;;331061;29;83428;-87
2021/04/04 00:08:04;;;;;;;3.85;1.88;;;8.60;59.20;8.80;99738.00;;;;332933;29;94108;-87
2021/04/04 00:08:15;;;;;;;3.58;1.88;;;8.60;59.40;8.80;99735.00;;;;331459;29;84071;-87
2021/04/04 00:08:27;;;;;;;3.40;1.83;;;8.60;59.40;8.80;99741.00;;;;330284;29;94383;-87
2021/04/04 00:08:38;;;;;;;4.04;1.72;;;8.60;59.30;8.80;99736.00;;;;333422;29;82529;-87
2021/04/04 00:08:50;;;;;;;3.33;1.48;;;8.60;59.30;8.70;99734.00;;;;332681;29;97465;-87
2021/04/04 00:09:01;;;;;;;3.72;1.55;;;8.60;59.30;8.70;99740.00;;;;329863;29;83362;-86
2021/04/04 00:09:15;;;;;;;4.70;1.55;;;8.60;59.40;8.80;99730.00;;;;330152;29;97785;-87
2021/04/04 00:09:26;;;;;;;5.85;1.98;;;8.60;59.30;8.80;99734.00;;;;330220;29;82769;-87
2021/04/04 00:09:38;;;;;;;5.15;1.98;;;8.60;59.20;8.80;99734.00;;;;331596;29;94440;-87
2021/04/04 00:09:49;;;;;;;4.13;1.80;;;8.60;59.20;8.80;99733.00;;;;333635;29;83383;-88
2021/04/04 00:10:01;;;;;;;3.35;1.60;;;8.60;59.20;8.70;99733.00;;;;330860;29;94057;-87
2021/04/04 00:10:13;;;;;;;2.85;1.42;;;8.60;59.20;8.60;99732.00;;;;332413;29;83346;-87
2021/04/04 00:10:25;;;;;;;2.70;1.30;;;8.60;59.20;8.50;99730.00;;;;331640;29;94855;-86
2021/04/04 00:10:36;;;;;;;2.97;1.58;;;8.50;59.10;8.60;99744.00;;;;332518;29;83399;-87
2021/04/04 00:10:47;;;;;;;3.28;1.80;;;8.50;59.20;8.70;99736.00;;;;331507;29;96576;-87
2021/04/04 00:10:59;;;;;;;3.63;1.90;;;8.60;59.40;8.70;99738.00;;;;330951;29;83729;-86
2021/04/04 00:11:10;;;;;;;3.85;1.70;;;8.50;59.30;8.70;99735.00;;;;332838;28;98066;-86
2021/04/04 00:11:22;;;;;;;3.20;1.58;;;8.50;59.40;8.80;99741.00;;;;332551;29;82319;-85
2021/04/04 00:11:33;;;;;;;3.40;1.70;;;8.60;59.50;8.80;99737.00;;;;333266;29;93285;-86
2021/04/04 00:11:47;;;;;;;3.35;1.85;;;8.50;59.50;8.80;99739.00;;;;332474;29;83297;-86
2021/04/04 00:11:58;;;;;;;3.85;1.77;;;8.60;59.40;8.80;99733.00;;;;333059;29;93003;-86
2021/04/04 00:12:10;;;;;;;3.70;1.83;;;8.60;59.30;8.70;99737.00;;;;333763;29;83510;-86
2021/04/04 00:12:22;;;;;;;3.22;1.60;;;8.60;59.30;8.70;99735.00;;;;331795;29;94502;-86
2021/04/04 00:12:33;;;;;;;3.50;1.50;;;8.60;59.30;8.80;99742.00;;;;333587;28;83382;-87
2021/04/04 00:12:45;;;;;;;4.24;1.60;;;8.60;59.30;8.90;99734.00;;;;330323;28;97058;-86
2021/04/04 00:12:56;;;;;;;4.38;1.65;;;8.60;59.50;8.80;99738.00;;;;329471;29;83387;-87
2021/04/04 00:13:07;;;;;;;3.28;1.58;;;8.50;59.40;8.70;99733.00;;;;328927;29;94982;-87
2021/04/04 00:13:19;;;;;;;2.67;1.50;;;8.60;59.30;8.80;99735.00;;;;329974;29;82387;-87
2021/04/04 00:13:32;;;;;;;2.35;1.60;;;8.60;59.40;8.80;99733.00;;;;328752;29;97090;-86
2021/04/04 00:13:43;;;;;;;2.80;1.73;;;8.60;60.00;8.70;99732.00;;;;329825;29;83394;-86
2021/04/04 00:13:54;;;;;;;3.88;1.90;;;8.60;59.40;8.70;99731.00;;;;330386;29;94829;-86
2021/04/04 00:14:06;;;;;;;4.28;1.80;;;8.60;59.30;8.80;99739.00;;;;332434;29;82453;-87
2021/04/04 00:14:17;;;;;;;4.44;1.60;;;8.60;59.20;8.80;99738.00;;;;331873;29;95081;-88
2021/04/04 00:14:29;;;;;;;3.53;1.27;;;8.60;59.20;8.80;99735.00;;;;331165;29;83324;-87
2021/04/04 00:14:40;;;;;;;3.22;1.40;;;8.60;59.20;8.80;99732.00;;;;331685;29;93338;-87
2021/04/04 00:14:52;;;;;;;3.30;1.52;;;8.60;59.40;8.80;99729.00;;;;332483;28;83319;-86
2021/04/04 00:15:06;;;;;;;3.80;1.67;;;8.60;59.40;8.80;99734.00;;;;331853;29;92834;-87
2021/04/04 00:15:17;;;;;;;4.35;1.63;;;8.60;59.30;8.80;99728.00;;;;328626;29;83439;-86
2021/04/04 00:15:29;;;;;;;3.94;1.80;;;8.60;59.30;8.70;99743.00;;;;327905;29;95015;-86
2021/04/04 00:15:41;;;;;;;3.47;1.92;;;8.60;59.90;8.80;99735.00;;;;329821;29;83267;-87
2021/04/04 00:15:53;;;;;;;3.50;1.60;;;8.60;60.00;8.80;99733.00;;;;331851;29;93706;-87
2021/04/04 00:16:05;;;;;;;3.92;1.63;;;8.60;59.40;8.90;99732.00;;;;331482;28;83366;-91
2021/04/04 00:16:16;;;;;;;4.78;1.45;;;8.60;59.40;8.60;99729.00;;;;330189;29;92978;-88
2021/04/04 00:16:28;;;;;;;4.28;1.67;;;8.60;59.40;8.60;99735.00;;;;331051;28;83916;-87
2021/04/04 00:16:39;;;;;;;4.15;1.70;;;8.50;59.20;8.70;99737.00;;;;330522;29;94593;-87
2021/04/04 00:16:50;;;;;;;4.43;1.70;;;8.50;59.20;8.80;99730.00;;;;329948;29;83397;-87
2021/04/04 00:17:03;;;;;;;4.82;1.60;;;8.50;59.10;8.70;99734.00;;;;331649;28;94658;-86
2021/04/04 00:17:15;;;;;;;3.38;1.55;;;8.60;59.20;8.70;99730.00;;;;332555;28;82385;-87
2021/04/04 00:17:26;;;;;;;2.85;1.48;;;8.60;59.30;8.80;99731.00;;;;329109;29;94804;-86
2021/04/04 00:17:38;;;;;;;4.38;1.42;;;8.60;59.90;8.80;99732.00;;;;331128;29;83289;-87
2021/04/04 00:17:49;;;;;;;4.28;1.48;;;8.50;59.40;8.80;99728.00;;;;331618;29;94338;-87
2021/04/04 00:18:01;;;;;;;5.00;1.60;;;8.60;59.50;8.80;99738.00;;;;332274;29;83331;-87
2021/04/04 00:18:12;;;;;;;4.32;1.70;;;8.50;59.40;8.80;99732.00;;;;330434;29;94481;-87
2021/04/04 00:18:24;;;;;;;4.18;1.65;;;8.50;59.40;8.80;99736.00;;;;330981;29;82637;-87
2021/04/04 00:18:35;;;;;;;3.10;1.60;;;8.60;59.50;8.80;99733.00;;;;330257;29;94949;-87
2021/04/04 00:18:47;;;;;;;4.13;1.42;;;8.50;59.40;8.90;99731.00;;;;331028;29;83401;-87
2021/04/04 00:18:59;;;;;;;4.25;1.45;;;8.60;59.40;8.90;99728.00;;;;331176;28;95802;-87
2021/04/04 00:19:12;;;;;;;3.85;1.42;;;8.60;59.40;8.70;99739.00;;;;332478;29;83421;-87
2021/04/04 00:19:24;;;;;;;5.07;1.63;;;8.60;59.40;8.70;99735.00;;;;330364;29;94207;-86
2021/04/04 00:19:35;;;;;;;5.47;1.58;;;8.60;59.30;8.80;99731.00;;;;332317;28;82709;-87
2021/04/04 00:19:46;;;;;;;4.63;1.73;;;8.60;59.20;8.80;99727.00;;;;332866;29;94844;-87
2021/04/04 00:19:58;;;;;;;4.10;2.10;;;8.60;59.40;8.70;99736.00;;;;335882;28;82565;-87
2021/04/04 00:20:15;;;;;;;5.45;2.20;;;8.60;59.30;8.80;99732.00;;;;327850;29;95086;-87
2021/04/04 00:20:27;;;;;;;6.03;2.03;;;8.60;59.40;8.80;99723.00;;;;329556;29;84061;-88
2021/04/04 00:20:38;;;;;;;4.35;1.77;;;8.60;59.40;8.70;99737.00;;;;335430;28;94802;-87
2021/04/04 00:20:50;;;;;;;4.75;2.28;;;8.60;59.40;8.70;99737.00;;;;330978;28;83460;-87
2021/04/04 00:21:02;;;;;;;3.90;2.40;;;8.60;59.40;8.60;99742.00;;;;331565;29;95331;-86
2021/04/04 00:21:13;;;;;;;3.55;2.20;;;8.60;59.20;8.50;99733.00;;;;329734;29;82463;-87
2021/04/04 00:21:25;;;;;;;3.17;1.70;;;8.60;59.20;8.70;99731.00;;;;331567;29;94852;-87
2021/04/04 00:21:36;;;;;;;3.30;1.65;;;8.50;59.20;8.60;99731.00;;;;332297;29;83403;-86
2021/04/04 00:21:48;;;;;;;3.88;1.48;;;8.50;59.20;8.70;99737.00;;;;330359;29;93500;-86
2021/04/04 00:21:59;;;;;;;4.72;1.83;;;8.50;59.30;8.70;99722.00;;;;331845;29;82738;-87
2021/04/04 00:22:11;;;;;;;5.10;2.08;;;8.50;59.40;8.70;99734.00;;;;329528;29;93056;-87
2021/04/04 00:22:23;;;;;;;4.70;2.25;;;8.50;59.30;8.70;99740.00;;;;332173;28;83945;-87
2021/04/04 00:22:34;;;;;;;4.78;1.95;;;8.50;59.40;8.60;99737.00;;;;329047;29;95071;-87
2021/04/04 00:22:46;;;;;;;4.07;1.65;;;8.50;59.40;8.70;99741.00;;;;328545;29;82476;-86
2021/04/04 00:22:57;;;;;;;3.78;1.30;;;8.50;59.50;8.70;99736.00;;;;327725;29;95569;-87
2021/04/04 00:23:09;;;;;;;3.40;1.50;;;8.50;59.50;8.70;99731.00;;;;329747;29;83329;-86
2021/04/04 00:23:20;;;;;;;4.15;1.60;;;8.50;59.50;8.60;99729.00;;;;331432;29;95853;-87
2021/04/04 00:23:31;;;;;;;4.30;1.70;;;8.50;59.40;8.60;99744.00;;;;331141;29;83539;-87
2021/04/04 00:23:43;;;;;;;3.60;1.60;;;8.50;59.40;8.60;99739.00;;;;331688;29;95287;-86
2021/04/04 00:23:55;;;;;;;3.33;1.63;;;8.50;59.50;8.60;99735.00;;;;330730;29;82491;-89
2021/04/04 00:24:07;;;;;;;4.10;1.38;;;8.50;59.40;8.50;99735.00;;;;330097;29;96814;-86
2021/04/04 00:24:18;;;;;;;4.20;1.65;;;8.50;59.50;8.30;99738.00;;;;328570;29;83404;-86
2021/04/04 00:24:30;;;;;;;3.78;1.75;;;8.40;59.40;8.40;99730.00;;;;326580;29;93300;-86
2021/04/04 00:24:41;;;;;;;4.53;1.90;;;8.30;59.40;8.50;99724.00;;;;329720;29;83744;-86
2021/04/04 00:24:52;;;;;;;5.40;1.80;;;8.40;60.00;8.50;99728.00;;;;329029;29;95925;-86
2021/04/04 00:25:06;;;;;;;4.72;1.70;;;8.40;59.50;8.50;99727.00;;;;333216;28;83306;-87
2021/04/04 00:25:18;;;;;;;4.28;1.55;;;8.40;59.60;8.50;99728.00;;;;327756;29;94855;-87
2021/04/04 00:25:29;;;;;;;3.45;1.40;;;8.40;59.60;8.40;99732.00;;;;330787;29;83702;-88
2021/04/04 00:25:41;;;;;;;3.33;1.40;;;8.30;60.10;8.30;99729.00;;;;331040;28;93701;-87
2021/04/04 00:25:52;;;;;;;3.65;1.80;;;8.30;60.30;8.40;99720.00;;;;330923;28;83455;-87
2021/04/04 00:26:04;;;;;;;3.72;1.77;;;8.30;59.80;8.40;99727.00;;;;335515;28;93746;-86
2021/04/04 00:26:15;;;;;;;4.25;1.95;;;8.30;59.90;8.50;99721.00;;;;329848;29;82253;-87
2021/04/04 00:26:27;;;;;;;4.97;1.73;;;8.30;60.00;8.50;99724.00;;;;329105;29;94133;-86
2021/04/04 00:26:38;;;;;;;4.15;1.35;;;8.30;60.60;8.50;99731.00;;;;336200;28;84957;-87
2021/04/04 00:26:49;;;;;;;3.35;1.30;;;8.30;59.90;8.50;99731.00;;;;327725;29;95340;-87
2021/04/04 00:27:01;;;;;;;3.92;1.48;;;8.30;60.00;8.50;99725.00;;;;332025;29;83570;-86
2021/04/04 00:27:12;;;;;;;5.40;1.80;;;8.30;60.00;8.50;99729.00;;;;330202;29;97036;-86
2021/04/04 00:27:24;;;;;;;4.88;1.80;;;8.30;60.10;8.40;99729.00;;;;337578;28;84328;-86
2021/04/04 00:27:35;;;;;;;3.10;1.48;;;8.30;60.20;8.40;99729.00;;;;332860;29;97125;-86
2021/04/04 00:27:46;;;;;;;3.00;1.25;;;8.30;60.20;8.50;99730.00;;;;331052;29;83336;-87
2021/04/04 00:27:58;;;;;;;3.25;1.38;;;8.30;60.10;8.50;99730.00;;;;329778;29;94256;-87
2021/04/04 00:28:09;;;;;;;3.10;1.55;;;8.30;60.00;8.40;99731.00;;;;338901;28;84583;-88
2021/04/04 00:28:20;;;;;;;3.92;1.85;;;8.30;60.00;8.50;99725.00;;;;332878;29;96356;-86
2021/04/04 00:28:32;;;;;;;3.80;1.60;;;8.30;60.00;8.50;99728.00;;;;336335;28;84791;-86
2021/04/04 00:28:44;;;;;;;2.97;1.40;;;8.30;60.00;8.50;99723.00;;;;331388;29;97906;-87
2021/04/04 00:28:55;;;;;;;2.60;1.38;;;8.30;60.00;8.50;99722.00;;;;333493;29;83740;-86
2021/04/04 00:29:07;;;;;;;3.08;1.50;;;8.30;60.00;8.40;99730.00;;;;331501;29;97750;-87
2021/04/04 00:29:19;;;;;;;2.75;1.35;;;8.30;59.90;8.40;99728.00;;;;334646;29;84361;-86
2021/04/04 00:29:30;;;;;;;2.97;1.40;;;8.30;59.80;8.40;99732.00;;;;331525;29;96087;-86
2021/04/04 00:29:42;;;;;;;3.70;2.03;;;8.30;59.90;8.40;99725.00;;;;331034;29;83367;-87
2021/04/04 00:29:53;;;;;;;3.63;2.10;;;8.30;60.00;8.40;99738.00;;;;330277;29;95577;-86
2021/04/04 00:30:12;;;;;;;2.97;1.88;;;8.30;60.00;8.40;99736.00;;;;332173;29;85181;-86
2021/04/04 00:30:24;;;;;;;3.17;1.85;;;8.30;60.00;8.40;99729.00;;;;333876;29;94980;-86
2021/04/04 00:30:36;;;;;;;3.30;2.13;;;8.20;60.00;8.40;99735.00;;;;332194;29;83367;-86
2021/04/04 00:30:47;;;;;;;4.15;2.15;;;8.20;60.20;8.50;99729.00;;;;331510;29;97849;-86
2021/04/04 00:30:58;;;;;;;4.82;2.17;;;8.30;60.20;8.50;99733.00;;;;330635;29;84916;-86
2021/04/04 00:31:10;;;;;;;4.97;2.00;;;8.30;60.20;8.50;99730.00;;;;328843;29;96716;-86
2021/04/04 00:31:21;;;;;;;3.47;1.60;;;8.30;60.20;8.40;99733.00;;;;330936;29;84576;-86
2021/04/04 00:31:36;;;;;;;3.58;1.73;;;8.20;60.20;8.40;99732.00;;;;330270;29;95026;-86
2021/04/04 00:31:47;;;;;;;3.33;1.90;;;8.30;60.20;8.30;99736.00;;;;330965;29;84911;-86
2021/04/04 00:31:59;;;;;;;3.42;1.80;;;8.20;60.20;8.40;99735.00;;;;333156;29;96983;-86
2021/04/04 00:32:11;;;;;;;3.97;1.65;;;8.20;60.10;8.40;99728.00;;;;332145;29;84566;-86
2021/04/04 00:32:22;;;;;;;3.80;1.52;;;8.20;60.30;8.40;99727.00;;;;330359;28;95484;-86
2021/04/04 00:32:34;;;;;;;3.67;1.60;;;8.20;60.20;8.50;99732.00;;;;330928;29;84456;-87
2021/04/04 00:32:45;;;;;;;3.67;1.75;;;8.20;60.00;8.40;99729.00;;;;329130;29;94964;-86
2021/04/04 00:32:57;;;;;;;3.47;1.52;;;8.20;60.00;8.50;99729.00;;;;332198;29;85011;-87
2021/04/04 00:33:08;;;;;;;3.22;1.15;;;8.20;60.00;8.40;99730.00;;;;330252;28;96087;-87
2021/04/04 00:33:19;;;;;;;2.90;1.30;;;8.20;60.10;8.40;99731.00;;;;330988;28;83679;-86
2021/04/04 00:33:31;;;;;;;2.98;1.22;;;8.20;60.10;8.30;99733.00;;;;328911;29;96995;-86
2021/04/04 00:33:43;;;;;;;3.85;1.50;;;8.20;60.10;8.40;99724.00;;;;330859;29;84833;-86
2021/04/04 00:33:54;;;;;;;4.05;1.52;;;8.20;60.10;8.50;99730.00;;;;331365;29;96183;-86
2021/04/04 00:34:06;;;;;;;5.40;1.73;;;8.20;60.10;8.40;99738.00;;;;333362;29;84689;-86
2021/04/04 00:34:17;;;;;;;4.38;1.67;;;8.20;60.70;8.40;99740.00;;;;331299;29;95485;-86
2021/04/04 00:34:28;;;;;;;3.65;1.88;;;8.20;60.10;8.50;99740.00;;;;333528;29;83770;-87
2021/04/04 00:34:40;;;;;;;3.67;2.10;;;8.20;60.20;8.50;99731.00;;;;332693;29;97920;-87
2021/04/04 00:34:51;;;;;;;3.55;2.13;;;8.20;60.20;8.40;99733.00;;;;331040;28;83391;-86
2021/04/04 00:35:21;;;;;;;4.43;1.90;;;8.20;60.20;8.30;99736.00;;;;330164;29;97154;-87
2021/04/04 00:35:32;;;;;;;3.63;1.58;;;8.20;60.10;8.40;99734.00;;;;332215;29;83570;-86
2021/04/04 00:35:44;;;;;;;3.03;1.80;;;8.20;60.20;8.40;99733.00;;;;330037;29;97637;-88
2021/04/04 00:35:55;;;;;;;3.33;1.73;;;8.20;60.20;8.40;99738.00;;;;333473;29;83431;-87
2021/04/04 00:36:07;;;;;;;3.28;1.60;;;8.20;60.40;8.40;99732.00;;;;330264;29;94808;-86
2021/04/04 00:36:18;;;;;;;3.50;1.42;;;8.20;60.20;8.40;99731.00;;;;330938;29;84819;-85
2021/04/04 00:36:29;;;;;;;3.72;1.52;;;8.20;60.10;8.40;99728.00;;;;329055;29;94916;-86
2021/04/04 00:36:41;;;;;;;4.25;1.80;;;8.20;60.10;8.40;99728.00;;;;328406;29;84999;-86
2021/04/04 00:36:52;;;;;;;4.53;1.60;;;8.20;60.00;8.40;99735.00;;;;330216;28;97324;-86
2021/04/04 00:37:03;;;;;;;4.75;1.60;;;8.20;60.00;8.40;99720.00;;;;337198;28;83286;-86
2021/04/04 00:37:15;;;;;;;3.83;1.60;;;8.20;60.10;8.40;99735.00;;;;330372;29;96767;-87
2021/04/04 00:37:26;;;;;;;4.03;1.42;;;8.20;60.30;8.40;99734.00;;;;332313;29;83331;-85
2021/04/04 00:37:38;;;;;;;3.90;1.42;;;8.20;60.30;8.40;99725.00;;;;332759;29;97358;-86
2021/04/04 00:37:50;;;;;;;3.45;1.23;;;8.20;60.30;8.40;99729.00;;;;330909;29;85003;-85
2021/04/04 00:38:03;;;;;;;3.33;1.30;;;8.20;60.30;8.30;99728.00;;;;331319;29;96083;-85
2021/04/04 00:38:14;;;;;;;4.18;1.40;;;8.20;60.40;8.20;99718.00;;;;333494;29;84413;-86
2021/04/04 00:38:25;;;;;;;4.65;1.52;;;8.20;61.00;8.20;99721.00;;;;330170;29;96828;-86
2021/04/04 00:38:37;;;;;;;6.57;1.90;;;8.20;60.40;8.40;99722.00;;;;332185;29;84646;-87
2021/04/04 00:38:48;;;;;;;5.13;1.65;;;8.20;60.40;8.40;99730.00;;;;327316;29;98536;-86
2021/04/04 00:39:00;;;;;;;3.70;1.45;;;8.20;60.30;8.40;99727.00;;;;332245;29;83905;-87
2021/04/04 00:39:12;;;;;;;2.58;1.42;;;8.20;60.50;8.30;99734.00;;;;330232;29;95907;-87
2021/04/04 00:39:27;;;;;;;3.47;1.67;;;8.20;60.40;8.20;99730.00;;;;333470;28;83480;-86
2021/04/04 00:39:38;;;;;;;3.35;1.52;;;8.10;60.30;8.10;99735.00;;;;330181;28;96166;-86
2021/04/04 00:39:50;;;;;;;2.92;1.40;;;8.10;60.20;8.10;99732.00;;;;332060;29;84653;-87
2021/04/04 00:40:01;;;;;;;2.45;1.33;;;8.00;60.30;8.20;99733.00;;;;331829;29;96669;-86
2021/04/04 00:40:14;;;;;;;3.50;1.40;;;8.00;60.40;8.30;99731.00;;;;329795;29;83211;-86
2021/04/04 00:40:33;;;;;;;4.72;1.17;;;8.00;60.50;8.30;99737.00;;;;330533;29;94810;-86
2021/04/04 00:40:45;;;;;;;4.00;1.17;;;8.00;60.40;8.30;99722.00;;;;328439;29;83770;-86
2021/04/04 00:40:56;;;;;;;4.00;1.35;;;8.10;60.60;8.30;99729.00;;;;336698;28;97870;-86
2021/04/04 00:41:08;;;;;;;3.95;1.33;;;8.00;61.20;8.30;99735.00;;;;337506;28;84644;-86
2021/04/04 00:41:19;;;;;;;4.45;1.35;;;8.00;60.60;8.30;99730.00;;;;331382;29;94699;-86
2021/04/04 00:41:31;;;;;;;3.42;1.35;;;8.00;60.70;8.20;99737.00;;;;329740;29;84633;-86
2021/04/04 00:41:42;;;;;;;3.42;1.38;;;8.10;60.80;8.30;99735.00;;;;332869;29;94946;-86
2021/04/04 00:41:54;;;;;;;3.08;1.40;;;8.00;60.70;8.20;99731.00;;;;329776;29;82520;-86
2021/04/04 00:42:05;;;;;;;2.58;1.20;;;8.00;60.70;8.20;99736.00;;;;331457;29;97027;-86
2021/04/04 00:42:17;;;;;;;3.03;1.27;;;8.00;60.60;8.30;99738.00;;;;333461;29;84150;-87
2021/04/04 00:42:28;;;;;;;3.60;1.52;;;8.00;60.60;8.30;99734.00;;;;332860;28;96298;-86
2021/04/04 00:42:39;;;;;;;;;;;8.00;60.70;8.30;99728.00;;;;331098;29;84483;-86
2021/04/04 00:42:51;;;;;;;3.10;1.48;;;8.10;60.80;8.30;99731.00;;;;331549;29;97725;-85
2021/04/04 00:43:02;;;;;;;4.38;1.67;;;8.10;60.70;8.30;99735.00;;;;333104;29;82700;-87
2021/04/04 00:43:14;;;;;;;6.63;1.83;;;8.10;60.60;8.40;99735.00;;;;331319;29;95853;-86
2021/04/04 00:43:25;;;;;;;5.82;2.03;;;8.10;60.60;8.30;99733.00;;;;330941;29;83386;-87
2021/04/04 00:43:37;;;;;;;2.78;1.73;;;8.10;60.50;8.40;99730.00;;;;331586;29;97989;-85
2021/04/04 00:43:48;;;;;;;3.53;1.75;;;8.10;60.50;8.30;99733.00;;;;332225;29;84670;-87
2021/04/04 00:44:00;;;;;;;3.83;1.83;;;8.10;60.50;8.30;99731.00;;;;330410;28;96019;-86
2021/04/04 00:44:12;;;;;;;3.28;1.80;;;8.10;60.50;8.30;99726.00;;;;330993;29;84130;-86
2021/04/04 00:44:23;;;;;;;2.55;1.42;;;8.10;60.50;8.30;99729.00;;;;330265;29;96735;-86
2021/04/04 00:44:35;;;;;;;3.10;1.33;;;8.10;60.50;8.30;99729.00;;;;337306;28;83958;-87
2021/04/04 00:44:46;;;;;;;3.40;1.45;;;8.10;60.70;8.30;99737.00;;;;331477;29;97710;-86
2021/04/04 00:44:57;;;;;;;4.05;1.75;;;8.10;60.50;8.30;99739.00;;;;332227;29;84398;-86
2021/04/04 00:45:15;;;;;;;4.45;1.90;;;8.10;60.50;8.40;99733.00;;;;332739;29;97148;-87
2021/04/04 00:45:35;;;;;;;3.58;2.05;;;8.10;60.40;8.40;99725.00;;;;330927;29;83816;-86
2021/04/04 00:45:46;;;;;;;3.50;1.90;;;8.10;60.40;8.40;99736.00;;;;330147;29;96318;-86
2021/04/04 00:45:57;;;;;;;3.47;1.58;;;8.20;61.10;8.40;99720.00;;;;330310;29;83904;-87
2021/04/04 00:46:09;;;;;;;3.10;1.55;;;8.10;60.40;8.40;99731.00;;;;330125;29;97088;-86
2021/04/04 00:46:23;;;;;;;3.70;1.75;;;8.20;60.50;8.40;99725.00;;;;332007;28;83649;-86
2021/04/04 00:46:35;;;;;;;3.83;1.70;;;8.10;60.90;8.40;99731.00;;;;331557;29;94674;-86
2021/04/04 00:46:46;;;;;;;3.45;1.73;;;8.10;60.40;8.40;99732.00;;;;333485;29;84970;-87
2021/04/04 00:46:57;;;;;;;4.30;2.00;;;8.10;60.20;8.50;99735.00;;;;328987;29;97557;-87
2021/04/04 00:47:09;;;;;;;4.40;1.90;;;8.20;60.40;8.40;99733.00;;;;332086;29;84743;-89
2021/04/04 00:47:20;;;;;;;2.88;1.73;;;8.20;60.30;8.50;99727.00;;;;330286;29;96492;-87
2021/04/04 00:47:31;;;;;;;4.50;2.00;;;8.20;60.30;8.50;99733.00;;;;331056;29;83465;-87
2021/04/04 00:47:43;;;;;;;4.45;2.00;;;8.20;60.30;8.50;99733.00;;;;329030;29;94646;-88
2021/04/04 00:47:55;;;;;;;5.38;2.13;;;8.20;60.30;8.50;99726.00;;;;330906;29;83447;-87
2021/04/04 00:48:07;;;;;;;6.45;2.13;;;8.20;60.40;8.60;99737.00;;;;332827;29;96434;-87
2021/04/04 00:48:18;;;;;;;6.63;1.95;;;8.20;60.30;8.60;99736.00;;;;332251;29;83769;-87
2021/04/04 00:48:30;;;;;;;5.53;1.67;;;8.20;60.30;8.60;99736.00;;;;329917;29;94739;-88
2021/04/04 00:48:42;;;;;;;4.32;1.60;;;8.20;60.30;8.60;99731.00;;;;333527;28;83509;-87
2021/04/04 00:48:54;;;;;;;4.47;1.67;;;8.20;61.00;8.60;99739.00;;;;330264;29;95500;-87
2021/04/04 00:49:05;;;;;;;3.45;1.60;;;8.30;60.40;8.60;99728.00;;;;330306;29;83397;-87
2021/04/04 00:49:17;;;;;;;3.90;1.95;;;8.30;60.40;8.60;99745.00;;;;331330;29;96666;-88
2021/04/04 00:49:28;;;;;;;4.32;2.05;;;8.30;60.20;8.40;99740.00;;;;330918;29;83651;-87
2021/04/04 00:49:39;;;;;;;4.20;1.90;;;8.30;60.10;8.30;99735.00;;;;331506;29;96861;-87
2021/04/04 00:49:51;;;;;;;3.40;1.60;;;8.30;60.00;8.50;99731.00;;;;330925;29;83976;-87
2021/04/04 00:50:06;;;;;;;4.60;1.65;;;8.30;60.10;8.50;99735.00;;;;330175;29;96904;-87
2021/04/04 00:50:21;;;;;;;5.38;1.83;;;8.30;60.10;8.50;99734.00;;;;332232;29;84466;-87
2021/04/04 00:50:36;;;;;;;4.32;1.88;;;8.30;59.90;8.40;99734.00;;;;328980;29;97242;-87
2021/04/04 00:50:47;;;;;;;3.65;1.70;;;8.30;59.80;8.40;99732.00;;;;333500;28;83433;-87
2021/04/04 00:50:59;;;;;;;3.17;1.63;;;8.20;59.80;8.50;99734.00;;;;330181;29;96653;-87
2021/04/04 00:51:11;;;;;;;3.05;1.92;;;8.30;59.90;8.50;99729.00;;;;330452;29;84320;-87
2021/04/04 00:51:22;;;;;;;4.10;2.28;;;8.30;60.00;8.50;99741.00;;;;330051;29;97039;-87
2021/04/04 00:51:34;;;;;;;3.92;2.10;;;8.30;60.10;8.50;99736.00;;;;329785;29;83243;-87
2021/04/04 00:51:45;;;;;;;3.50;1.80;;;8.30;60.00;8.40;99736.00;;;;329026;29;95639;-87
2021/04/04 00:51:57;;;;;;;2.45;1.48;;;8.30;60.00;8.40;99735.00;;;;329311;29;84689;-88
2021/04/04 00:52:08;;;;;;;2.92;1.38;;;8.30;60.00;8.50;99736.00;;;;331018;29;97075;-87
2021/04/04 00:52:20;;;;;;;4.00;1.73;;;8.30;60.00;8.50;99729.00;;;;329736;29;83389;-87
2021/04/04 00:52:31;;;;;;;4.15;1.90;;;8.30;60.00;8.50;99729.00;;;;330437;29;96874;-86
2021/04/04 00:52:46;;;;;;;3.92;1.80;;;8.30;60.00;8.50;99737.00;;;;332144;29;83634;-87
2021/04/04 00:52:58;;;;;;;3.47;1.55;;;8.30;60.00;8.60;99740.00;;;;331467;29;98618;-87
2021/04/04 00:53:10;;;;;;;4.90;1.83;;;8.30;60.00;8.50;99735.00;;;;333434;29;85015;-87
2021/04/04 00:53:21;;;;;;;4.78;1.90;;;8.30;60.00;8.50;99731.00;;;;333604;29;97140;-86
2021/04/04 00:53:33;;;;;;;3.72;1.60;;;8.30;59.80;8.50;99728.00;;;;332240;29;85070;-87
2021/04/04 00:53:44;;;;;;;3.28;1.77;;;8.30;59.90;8.50;99734.00;;;;333973;28;95529;-88
2021/04/04 00:53:55;;;;;;;3.10;1.70;;;8.30;59.80;8.50;99731.00;;;;333431;29;83693;-88
2021/04/04 00:54:07;;;;;;;4.32;1.55;;;8.30;59.80;8.50;99733.00;;;;331442;29;97607;-87
2021/04/04 00:54:18;;;;;;;4.72;1.30;;;8.30;59.70;8.40;99728.00;;;;333502;29;84539;-87
2021/04/04 00:54:29;;;;;;;4.53;1.38;;;8.30;59.70;8.40;99741.00;;;;332881;29;94071;-88